createdAt,value
2018-10-02T00:02:28.136Z,6.08
2018-10-02T00:04:57.467Z,6.50
2018-10-02T00:07:26.796Z,6.85
2018-10-02T00:09:56.179Z,7.65
2018-10-02T00:12:30.833Z,7.37
2018-10-02T00:15:00.242Z,6.55
2018-10-02T00:17:29.558Z,6.40
2018-10-02T00:19:58.911Z,5.47
2018-10-02T00:22:28.264Z,5.90
2018-10-02T00:24:57.624Z,6.45
2018-10-02T00:27:27.164Z,6.40
2018-10-02T00:29:58.212Z,5.97
2018-10-02T00:32:27.727Z,5.50
2018-10-02T00:34:57.044Z,5.40
2018-10-02T00:37:26.392Z,5.87
2018-10-02T00:39:56.934Z,5.53
2018-10-02T00:42:26.437Z,6.20
2018-10-02T00:44:56.483Z,5.97
2018-10-02T00:47:26.857Z,6.50
2018-10-02T00:49:56.205Z,5.78
2018-10-02T00:52:25.554Z,6.03
2018-10-02T00:54:55.120Z,5.67
2018-10-02T00:57:24.530Z,6.47
2018-10-02T00:59:53.973Z,6.33
2018-10-02T01:02:23.395Z,5.50
2018-10-02T01:04:52.775Z,5.92
2018-10-02T01:07:22.121Z,6.03
2018-10-02T01:09:51.480Z,5.80
2018-10-02T01:12:20.818Z,6.30
2018-10-02T01:14:50.164Z,5.72
2018-10-02T01:17:20.300Z,6.42
2018-10-02T01:19:49.838Z,5.37
2018-10-02T01:22:19.186Z,4.90
2018-10-02T01:24:48.783Z,5.30
2018-10-02T01:27:18.187Z,4.75
2018-10-02T01:29:47.596Z,4.90
2018-10-02T01:32:17.023Z,4.83
2018-10-02T01:34:46.357Z,4.55
2018-10-02T01:37:15.719Z,4.93
2018-10-02T01:39:45.164Z,5.12
2018-10-02T01:42:14.517Z,5.78
2018-10-02T01:44:43.830Z,5.05
2018-10-02T01:47:14.037Z,5.58
2018-10-02T01:49:43.489Z,5.35
2018-10-02T01:52:12.976Z,5.60
2018-10-02T01:54:42.328Z,5.78
2018-10-02T01:57:11.630Z,5.22
2018-10-02T01:59:40.963Z,5.20
2018-10-02T02:02:10.326Z,5.15
2018-10-02T02:04:39.621Z,4.70
2018-10-02T02:07:09.019Z,4.72
2018-10-02T02:09:38.367Z,5.22
2018-10-02T02:12:07.883Z,6.17
2018-10-02T02:14:37.231Z,5.92
2018-10-02T02:17:06.660Z,5.70
2018-10-02T02:19:36.099Z,5.60
2018-10-02T02:22:05.446Z,5.85
2018-10-02T02:24:34.911Z,5.70
2018-10-02T02:27:04.289Z,5.90
2018-10-02T02:29:34.725Z,5.83
2018-10-02T02:32:04.180Z,5.53
2018-10-02T02:34:33.518Z,5.58
2018-10-02T02:37:02.923Z,5.30
2018-10-02T02:39:32.276Z,5.87
2018-10-02T02:42:01.651Z,5.97
2018-10-02T02:44:31.051Z,5.58
2018-10-02T02:47:05.765Z,5.23
2018-10-02T02:49:40.516Z,5.53
2018-10-02T02:52:10.249Z,6.00
2018-10-02T02:54:39.667Z,6.33
2018-10-02T02:57:10.140Z,6.42
2018-10-02T02:59:39.602Z,7.22
2018-10-02T03:02:08.945Z,6.47
2018-10-02T03:04:38.984Z,6.40
2018-10-02T03:07:08.369Z,6.67
2018-10-02T03:09:37.717Z,6.67
2018-10-02T03:12:08.184Z,6.55
2018-10-02T03:14:37.541Z,7.40
2018-10-02T03:17:06.912Z,7.22
2018-10-02T03:19:36.995Z,7.35
2018-10-02T03:22:06.432Z,7.33
2018-10-02T03:24:35.760Z,8.10
2018-10-02T03:27:06.133Z,8.73
2018-10-02T03:29:35.535Z,9.00
2018-10-02T03:32:05.855Z,9.43
2018-10-02T03:34:35.184Z,8.75
2018-10-02T03:37:04.592Z,8.68
2018-10-02T03:39:33.978Z,9.50
2018-10-02T03:42:03.344Z,9.20
2018-10-02T03:44:32.803Z,9.33
2018-10-02T03:47:02.215Z,9.13
2018-10-02T03:49:31.554Z,9.03
2018-10-02T03:52:01.904Z,9.43
2018-10-02T03:54:31.316Z,9.88
2018-10-02T03:57:00.650Z,9.73
2018-10-02T03:59:30.011Z,10.15
2018-10-02T04:01:59.358Z,9.65
2018-10-02T04:04:28.655Z,9.40
2018-10-02T04:06:58.458Z,9.18
2018-10-02T04:09:27.739Z,9.05
2018-10-02T04:11:57.185Z,7.95
2018-10-02T04:14:26.580Z,8.85
2018-10-02T04:16:55.915Z,9.10
2018-10-02T04:19:25.256Z,8.15
2018-10-02T04:21:55.698Z,9.43
2018-10-02T04:24:25.071Z,8.83
2018-10-02T04:26:54.499Z,9.23
2018-10-02T04:29:24.027Z,9.38
2018-10-02T04:31:53.394Z,9.23
2018-10-02T04:34:23.534Z,9.83
2018-10-02T04:36:53.024Z,9.50
2018-10-02T04:39:23.393Z,9.63
2018-10-02T04:41:52.718Z,10.18
2018-10-02T04:44:22.089Z,9.80
2018-10-02T04:46:51.498Z,10.43
2018-10-02T04:49:21.853Z,10.20
2018-10-02T04:51:51.375Z,10.35
2018-10-02T04:54:20.800Z,10.43
2018-10-02T04:56:50.145Z,10.68
2018-10-02T04:59:19.636Z,10.40
2018-10-02T05:01:49.097Z,10.75
2018-10-02T05:04:18.434Z,10.65
2018-10-02T05:06:48.806Z,10.78
2018-10-02T05:09:18.133Z,10.13
2018-10-02T05:11:47.522Z,10.53
2018-10-02T05:14:16.985Z,11.40
2018-10-02T05:16:46.360Z,11.53
2018-10-02T05:19:15.752Z,11.08
2018-10-02T05:21:45.183Z,10.48
2018-10-02T05:24:14.614Z,10.72
2018-10-02T05:26:44.017Z,9.87
2018-10-02T05:29:13.451Z,10.23
2018-10-02T05:31:42.815Z,9.60
2018-10-02T05:34:12.851Z,10.27
2018-10-02T05:36:42.215Z,9.43
2018-10-02T05:39:11.590Z,9.50
2018-10-02T05:41:40.946Z,10.18
2018-10-02T05:44:10.522Z,8.93
2018-10-02T05:46:41.023Z,9.05
2018-10-02T05:49:10.484Z,9.10
2018-10-02T05:51:40.137Z,9.35
2018-10-02T05:55:47.038Z,10.18
2018-10-02T05:58:16.537Z,9.95
2018-10-02T06:00:45.874Z,9.70
2018-10-02T06:03:15.306Z,8.65
2018-10-02T06:05:46.160Z,9.35
2018-10-02T06:08:15.479Z,8.73
2018-10-02T06:10:44.869Z,8.98
2018-10-02T06:13:15.008Z,8.83
2018-10-02T06:15:44.362Z,8.45
2018-10-02T06:18:13.866Z,9.00
2018-10-02T06:20:43.318Z,8.00
2018-10-02T06:23:13.676Z,7.75
2018-10-02T06:25:43.081Z,7.28
2018-10-02T06:28:12.525Z,7.47
2018-10-02T06:30:42.207Z,6.72
2018-10-02T06:33:11.559Z,6.22
2018-10-02T06:35:41.021Z,7.00
2018-10-02T06:38:10.566Z,5.80
2018-10-02T06:40:39.871Z,5.78
2018-10-02T06:43:09.396Z,5.60
2018-10-02T06:45:38.872Z,5.58
2018-10-02T06:48:09.002Z,4.78
2018-10-02T06:50:38.427Z,3.70
2018-10-02T06:53:07.727Z,4.10
2018-10-02T06:55:37.419Z,4.00
2018-10-02T06:58:06.796Z,4.55
2018-10-02T07:00:36.241Z,4.28
2018-10-02T07:03:05.646Z,3.72
2018-10-02T07:05:35.002Z,3.52
2018-10-02T07:08:05.200Z,3.10
2018-10-02T07:10:35.617Z,3.15
2018-10-02T07:13:05.015Z,3.10
2018-10-02T07:15:34.419Z,3.15
2018-10-02T07:18:03.779Z,3.37
2018-10-02T07:20:33.203Z,3.22
2018-10-02T07:23:03.586Z,2.62
2018-10-02T07:25:32.962Z,2.85
2018-10-02T07:28:02.569Z,3.05
2018-10-02T07:30:32.098Z,2.90
2018-10-02T07:33:01.449Z,2.60
2018-10-02T07:35:30.870Z,3.05
2018-10-02T07:38:00.263Z,3.10
2018-10-02T07:40:29.730Z,3.08
2018-10-02T07:42:59.196Z,2.60
2018-10-02T07:45:28.715Z,2.60
2018-10-02T07:47:58.174Z,2.92
2018-10-02T07:50:27.461Z,3.07
2018-10-02T07:52:56.949Z,3.10
2018-10-02T07:55:26.393Z,2.70
2018-10-02T07:57:55.849Z,2.95
2018-10-02T08:00:25.229Z,2.87
2018-10-02T08:02:54.639Z,3.15
2018-10-02T08:05:24.053Z,3.22
2018-10-02T08:07:53.810Z,2.77
2018-10-02T08:10:23.228Z,2.65
2018-10-02T08:12:53.990Z,2.77
2018-10-02T08:15:23.440Z,2.50
2018-10-02T08:17:52.901Z,2.83
2018-10-02T08:20:22.395Z,2.62
2018-10-02T08:22:51.842Z,2.72
2018-10-02T08:25:21.211Z,3.40
2018-10-02T08:27:50.701Z,3.20
2018-10-02T08:30:20.193Z,3.42
2018-10-02T08:32:49.525Z,3.58
2018-10-02T08:35:18.993Z,3.90
2018-10-02T08:37:48.449Z,3.83
2018-10-02T08:40:17.766Z,3.87
2018-10-02T08:42:47.720Z,4.12
2018-10-02T08:45:17.091Z,4.15
2018-10-02T08:47:46.541Z,4.28
2018-10-02T08:50:15.915Z,4.70
2018-10-02T08:52:45.322Z,4.95
2018-10-02T08:55:14.685Z,4.28
2018-10-02T08:57:44.100Z,4.70
2018-10-02T09:00:13.532Z,5.08
2018-10-02T09:02:43.863Z,4.50
2018-10-02T09:05:13.285Z,4.60
2018-10-02T09:07:42.933Z,4.45
2018-10-02T09:10:12.349Z,4.03
2018-10-02T09:12:42.475Z,4.55
2018-10-02T09:15:12.615Z,4.65
2018-10-02T09:17:42.050Z,4.55
2018-10-02T09:20:11.490Z,4.42
2018-10-02T09:22:41.002Z,4.60
2018-10-02T09:25:10.393Z,4.50
2018-10-02T09:27:39.856Z,4.47
2018-10-02T09:30:14.638Z,4.58
2018-10-02T09:32:49.095Z,5.25
2018-10-02T09:35:23.857Z,5.20
2018-10-02T09:37:59.560Z,5.12
2018-10-02T09:40:37.954Z,4.50
2018-10-02T09:43:12.785Z,4.67
2018-10-02T09:45:42.324Z,4.40
2018-10-02T09:48:13.395Z,4.77
2018-10-02T09:50:42.848Z,4.65
2018-10-02T09:53:12.095Z,4.00
2018-10-02T09:55:43.449Z,4.17
2018-10-02T09:58:12.788Z,4.40
2018-10-02T10:01:51.326Z,5.10
2018-10-02T10:04:20.777Z,3.80
2018-10-02T10:06:50.118Z,3.60
2018-10-02T10:09:19.475Z,4.37
2018-10-02T10:11:48.819Z,4.55
2018-10-02T10:14:18.217Z,4.53
2018-10-02T10:16:52.561Z,4.60
2018-10-02T10:19:21.886Z,4.50
2018-10-02T10:21:51.325Z,4.28
2018-10-02T10:24:20.770Z,5.03
2018-10-02T10:26:50.154Z,4.72
2018-10-02T10:29:19.605Z,3.80
2018-10-02T10:31:49.131Z,3.12
2018-10-02T10:34:18.546Z,3.20
2018-10-02T10:36:47.875Z,3.80
2018-10-02T10:39:17.329Z,3.35
2018-10-02T10:41:46.798Z,3.10
2018-10-02T10:44:17.181Z,3.50
2018-10-02T10:46:46.829Z,3.15
2018-10-02T10:49:16.290Z,2.70
2018-10-02T10:51:45.688Z,2.87
2018-10-02T10:54:16.083Z,3.20
2018-10-02T10:57:59.931Z,3.20
2018-10-02T11:00:29.797Z,2.92
2018-10-02T11:02:59.268Z,3.27
2018-10-02T11:05:29.652Z,4.78
2018-10-02T11:07:59.166Z,3.90
2018-10-02T11:10:28.540Z,3.85
2018-10-02T11:12:58.921Z,4.70
2018-10-02T11:15:30.936Z,4.40
2018-10-02T11:18:00.672Z,4.17
2018-10-02T11:20:35.039Z,3.72
2018-10-02T11:23:04.457Z,3.65
2018-10-02T11:25:33.831Z,3.23
2018-10-02T11:28:03.265Z,3.33
2018-10-02T11:30:32.594Z,3.40
2018-10-02T11:33:03.018Z,3.92
2018-10-02T11:35:32.544Z,3.37
2018-10-02T11:38:01.823Z,3.35
2018-10-02T11:40:31.217Z,3.52
2018-10-02T11:43:00.551Z,3.50
2018-10-02T11:45:29.864Z,3.58
2018-10-02T11:48:00.231Z,3.60
2018-10-02T11:50:29.607Z,3.80
2018-10-02T11:52:58.943Z,3.70
2018-10-02T11:55:28.378Z,3.15
2018-10-02T11:57:57.689Z,3.50
2018-10-02T12:00:27.118Z,3.10
2018-10-02T12:02:56.426Z,3.58
2018-10-02T12:05:25.921Z,3.27
2018-10-02T12:07:55.278Z,4.00
2018-10-02T12:10:24.644Z,5.00
2018-10-02T12:12:55.173Z,5.20
2018-10-02T12:15:24.547Z,5.10
2018-10-02T12:17:53.933Z,4.95
2018-10-02T12:20:23.290Z,4.95
2018-10-02T12:22:52.600Z,4.22
2018-10-02T12:25:21.971Z,4.92
2018-10-02T12:27:51.380Z,5.50
2018-10-02T12:30:20.760Z,4.00
2018-10-02T12:32:50.092Z,3.60
2018-10-02T12:35:19.484Z,3.02
2018-10-02T12:37:48.869Z,3.13
2018-10-02T12:40:18.217Z,3.10
2018-10-02T12:42:47.595Z,3.33
2018-10-02T12:45:16.991Z,3.25
2018-10-02T12:47:50.180Z,3.13
2018-10-02T12:50:19.516Z,3.30
2018-10-02T12:52:48.965Z,3.12
2018-10-02T12:55:18.248Z,3.90
2018-10-02T12:57:47.589Z,3.02
2018-10-02T13:00:16.949Z,3.40
2018-10-02T13:02:46.962Z,3.20
2018-10-02T13:05:16.316Z,3.12
2018-10-02T13:07:45.680Z,2.80
2018-10-02T13:10:15.266Z,3.40
2018-10-02T13:12:44.569Z,3.62
2018-10-02T13:15:13.946Z,3.12
2018-10-02T13:17:43.302Z,3.15
2018-10-02T13:20:12.763Z,3.40
2018-10-02T13:22:42.208Z,3.00
2018-10-02T13:25:11.735Z,3.70
2018-10-02T13:27:41.159Z,3.08
2018-10-02T13:30:10.529Z,3.42
2018-10-02T13:32:39.976Z,3.52
2018-10-02T13:35:09.448Z,3.33
2018-10-02T13:37:38.904Z,3.37
2018-10-02T13:40:08.288Z,3.52
2018-10-02T13:42:37.939Z,2.95
2018-10-02T13:45:07.267Z,3.83
2018-10-02T13:47:36.804Z,3.37
2018-10-02T13:50:06.342Z,3.83
2018-10-02T13:52:36.736Z,4.23
2018-10-02T13:55:06.150Z,3.55
2018-10-02T13:57:35.523Z,3.40
2018-10-02T14:00:05.013Z,3.67
2018-10-02T14:02:34.443Z,3.17
2018-10-02T14:05:04.536Z,3.60
2018-10-02T14:07:34.923Z,3.10
2018-10-02T14:10:05.358Z,3.80
2018-10-02T14:12:35.712Z,3.10
2018-10-02T14:15:05.309Z,3.00
2018-10-02T14:17:34.663Z,3.10
2018-10-02T14:20:04.195Z,3.00
2018-10-02T14:22:33.797Z,3.00
2018-10-02T14:25:03.071Z,3.15
2018-10-02T14:27:32.433Z,2.92
2018-10-02T14:30:01.810Z,3.20
2018-10-02T14:32:31.191Z,2.98
2018-10-02T14:35:00.752Z,3.50
2018-10-02T14:37:30.178Z,2.80
2018-10-02T14:39:59.580Z,2.92
2018-10-02T14:42:28.979Z,2.45
2018-10-02T14:44:58.381Z,3.30
2018-10-02T14:47:27.870Z,2.98
2018-10-02T14:49:57.288Z,3.27
2018-10-02T14:52:26.653Z,3.08
2018-10-02T14:54:56.072Z,3.08
2018-10-02T14:57:25.463Z,3.08
2018-10-02T14:59:54.844Z,3.22
2018-10-02T15:02:24.297Z,3.35
2018-10-02T15:04:53.734Z,3.30
2018-10-02T15:07:23.047Z,3.37
2018-10-02T15:09:52.433Z,3.50
2018-10-02T15:12:22.858Z,3.30
2018-10-02T15:14:52.250Z,3.40
2018-10-02T15:17:21.702Z,3.60
2018-10-02T15:19:51.167Z,3.72
2018-10-02T15:22:20.508Z,3.80
2018-10-02T15:24:50.257Z,3.98
2018-10-02T15:27:19.611Z,3.55
2018-10-02T15:29:49.105Z,3.80
2018-10-02T15:32:18.438Z,3.50
2018-10-02T15:34:47.793Z,3.87
2018-10-02T15:37:17.166Z,3.72
2018-10-02T15:39:46.535Z,4.12
2018-10-02T15:42:15.935Z,4.00
2018-10-02T15:44:46.341Z,4.22
2018-10-02T15:47:15.679Z,3.70
2018-10-02T15:49:45.056Z,3.60
2018-10-02T15:52:14.485Z,3.90
2018-10-02T15:54:43.848Z,4.10
2018-10-02T15:57:13.310Z,4.47
2018-10-02T15:59:42.730Z,4.20
2018-10-02T16:02:12.127Z,4.40
2018-10-02T16:04:41.488Z,4.47
2018-10-02T16:07:10.930Z,4.08
2018-10-02T16:09:40.327Z,3.98
2018-10-02T16:12:11.864Z,4.15
2018-10-02T16:14:41.234Z,4.10
2018-10-02T16:17:10.608Z,4.20
2018-10-02T16:19:40.017Z,5.10
2018-10-02T16:22:09.480Z,4.87
2018-10-02T16:24:39.028Z,4.95
2018-10-02T16:27:08.342Z,4.85
2018-10-02T16:29:37.870Z,5.37
2018-10-02T16:32:07.404Z,5.20
2018-10-02T16:34:48.979Z,5.10
2018-10-02T16:37:06.360Z,4.97
2018-10-02T16:39:35.748Z,4.93
2018-10-02T16:42:05.146Z,4.75
2018-10-02T16:44:34.476Z,5.12
2018-10-02T16:47:03.879Z,4.67
2018-10-02T16:49:33.239Z,4.75
2018-10-02T16:52:02.633Z,5.43
2018-10-02T16:54:32.082Z,5.37
2018-10-02T16:57:02.452Z,5.30
2018-10-02T16:59:32.980Z,4.67
2018-10-02T17:02:02.370Z,5.37
2018-10-02T17:04:32.964Z,6.33
2018-10-02T17:07:02.489Z,5.03
2018-10-02T17:09:31.813Z,5.12
2018-10-02T17:12:01.192Z,5.22
2018-10-02T17:14:31.552Z,5.50
2018-10-02T17:17:00.962Z,5.85
2018-10-02T17:19:30.348Z,5.90
2018-10-02T17:21:59.782Z,5.42
2018-10-02T17:24:29.134Z,5.55
2018-10-02T17:26:59.546Z,5.25
2018-10-02T17:29:28.932Z,5.10
2018-10-02T17:31:58.475Z,5.43
2018-10-02T17:34:27.906Z,6.00
2018-10-02T17:36:57.260Z,5.47
2018-10-02T17:39:26.611Z,5.50
2018-10-02T17:41:56.014Z,5.20
2018-10-02T17:44:26.391Z,5.50
2018-10-02T17:46:55.770Z,5.72
2018-10-02T17:49:25.159Z,5.17
2018-10-02T17:51:54.568Z,5.40
2018-10-02T17:54:24.945Z,5.30
2018-10-02T17:56:54.303Z,5.62
2018-10-02T17:59:23.676Z,5.03
2018-10-02T18:01:53.096Z,4.72
2018-10-02T18:04:22.472Z,4.70
2018-10-02T18:06:51.920Z,5.33
2018-10-02T18:09:21.235Z,5.10
2018-10-02T18:11:50.613Z,4.90
2018-10-02T18:14:20.953Z,6.15
2018-10-02T18:16:52.398Z,5.05
2018-10-02T18:19:22.742Z,6.00
2018-10-02T18:21:52.103Z,5.37
2018-10-02T18:24:21.508Z,5.92
2018-10-02T18:26:50.875Z,5.70
2018-10-02T18:29:24.198Z,5.70
2018-10-02T18:31:53.785Z,5.90
2018-10-02T18:34:23.229Z,5.87
2018-10-02T18:36:52.600Z,6.08
2018-10-02T18:39:22.020Z,5.05
2018-10-02T18:41:51.432Z,5.15
2018-10-02T18:44:20.920Z,4.83
2018-10-02T18:46:51.279Z,4.62
2018-10-02T18:49:20.723Z,4.85
2018-10-02T18:51:50.470Z,4.30
2018-10-02T18:54:19.812Z,4.70
2018-10-02T18:56:49.293Z,4.62
2018-10-02T18:59:18.816Z,4.67
2018-10-02T19:01:48.395Z,4.10
2018-10-02T19:04:17.787Z,3.90
2018-10-02T19:06:48.161Z,3.95
2018-10-02T19:09:18.401Z,4.00
2018-10-02T19:11:53.067Z,3.77
2018-10-02T19:14:23.514Z,3.72
2018-10-02T19:16:53.032Z,3.75
2018-10-02T19:19:27.656Z,3.77
2018-10-02T19:21:57.073Z,4.17
2018-10-02T19:24:26.574Z,3.87
2018-10-02T19:26:56.045Z,4.08
2018-10-02T19:29:25.618Z,3.80
2018-10-02T19:32:02.567Z,3.85
2018-10-02T19:34:32.047Z,3.75
2018-10-02T19:37:01.679Z,3.45
2018-10-02T19:39:32.632Z,3.80
2018-10-02T19:42:01.986Z,3.47
2018-10-02T19:44:31.460Z,3.75
2018-10-02T19:47:01.736Z,3.60
2018-10-02T19:49:32.541Z,3.50
2018-10-02T19:52:06.158Z,3.60
2018-10-02T19:54:35.556Z,3.65
2018-10-02T19:57:05.260Z,3.98
2018-10-02T19:59:34.686Z,4.15
2018-10-02T20:02:04.036Z,3.70
2018-10-02T20:04:37.698Z,4.00
2018-10-02T20:07:07.184Z,3.87
2018-10-02T20:09:36.541Z,4.20
2018-10-02T20:12:06.569Z,4.27
2018-10-02T20:14:36.012Z,4.30
2018-10-02T20:17:05.406Z,4.53
2018-10-02T20:19:34.830Z,4.17
2018-10-02T20:22:04.234Z,4.70
2018-10-02T20:24:37.584Z,4.28
2018-10-02T20:27:06.958Z,4.25
2018-10-02T20:29:36.297Z,4.55
2018-10-02T20:32:05.715Z,4.60
2018-10-02T20:34:36.068Z,4.50
2018-10-02T20:37:05.902Z,5.17
2018-10-02T20:39:35.297Z,4.70
2018-10-02T20:42:04.596Z,4.50
2018-10-02T20:44:34.024Z,4.00
2018-10-02T20:47:03.414Z,4.40
2018-10-02T20:49:32.862Z,4.00
2018-10-02T20:52:02.192Z,4.17
2018-10-02T20:54:31.559Z,4.70
2018-10-02T20:57:00.897Z,4.37
2018-10-02T20:59:31.213Z,4.40
2018-10-02T21:02:00.594Z,5.08
2018-10-02T21:04:29.946Z,4.87
2018-10-02T21:06:59.280Z,4.55
2018-10-02T21:09:28.593Z,5.40
2018-10-02T21:11:57.976Z,5.08
2018-10-02T21:14:27.346Z,4.65
2018-10-02T21:16:56.691Z,5.97
2018-10-02T21:19:26.064Z,4.78
2018-10-02T21:21:55.498Z,4.37
2018-10-02T21:24:24.774Z,4.58
2018-10-02T21:26:54.122Z,4.85
2018-10-02T21:29:23.436Z,4.72
2018-10-02T21:31:52.847Z,4.22
2018-10-02T21:34:22.168Z,4.30
2018-10-02T21:36:51.533Z,4.40
2018-10-02T21:39:20.966Z,4.67
2018-10-02T21:41:50.346Z,4.58
2018-10-02T21:44:19.678Z,4.83
2018-10-02T21:46:49.007Z,4.62
2018-10-02T21:49:18.385Z,4.33
2018-10-02T21:51:47.728Z,4.28
2018-10-02T21:54:17.089Z,4.20
2018-10-02T21:56:46.437Z,4.72
2018-10-02T21:59:15.864Z,4.22
2018-10-02T22:01:45.176Z,4.45
2018-10-02T22:04:14.609Z,4.50
2018-10-02T22:06:43.946Z,4.70
2018-10-02T22:09:13.337Z,4.35
2018-10-02T22:11:45.729Z,4.13
2018-10-02T22:14:15.140Z,4.42
2018-10-02T22:16:44.716Z,4.87
2018-10-02T22:19:15.084Z,3.98
2018-10-02T22:21:45.453Z,4.47
2018-10-02T22:24:14.979Z,4.85
2018-10-02T22:26:44.249Z,4.58
2018-10-02T22:29:13.687Z,4.10
2018-10-02T22:31:44.001Z,4.50
2018-10-02T22:34:13.517Z,4.70
2018-10-02T22:36:42.904Z,4.75
2018-10-02T22:39:12.358Z,4.30
2018-10-02T22:41:41.782Z,4.87
2018-10-02T22:44:11.134Z,4.53
2018-10-02T22:46:40.490Z,4.90
2018-10-02T22:49:09.851Z,4.50
2018-10-02T22:51:39.203Z,4.85
2018-10-02T22:54:09.683Z,4.92
2018-10-02T22:56:39.060Z,6.78
2018-10-02T22:59:08.469Z,8.30
2018-10-02T23:01:37.778Z,5.03
2018-10-02T23:04:07.342Z,5.00
2018-10-02T23:06:36.694Z,4.67
2018-10-02T23:09:09.028Z,4.78
2018-10-02T23:11:38.375Z,5.00
2018-10-02T23:14:08.025Z,4.72
2018-10-02T23:16:37.380Z,4.72
2018-10-02T23:19:06.728Z,4.15
2018-10-02T23:21:36.145Z,4.67
2018-10-02T23:24:05.484Z,5.10
2018-10-02T23:26:34.957Z,4.58
2018-10-02T23:29:04.256Z,4.20
2018-10-02T23:31:33.587Z,3.92
2018-10-02T23:34:02.913Z,4.50
2018-10-02T23:36:32.257Z,4.55
2018-10-02T23:39:01.694Z,4.27
2018-10-02T23:41:31.045Z,4.23
2018-10-02T23:44:00.439Z,4.40
2018-10-02T23:46:29.988Z,4.83
2018-10-02T23:48:59.340Z,4.40
2018-10-02T23:51:28.812Z,4.80
2018-10-02T23:53:58.138Z,4.53
2018-10-02T23:56:27.585Z,4.22
2018-10-02T23:58:56.935Z,4.40
